createdAt,value
2018-06-07T00:01:15.103Z,0.00
2018-06-07T00:01:58.041Z,0.00
2018-06-07T00:02:53.104Z,0.00
2018-06-07T00:03:53.105Z,0.00
2018-06-07T00:04:53.605Z,0.00
2018-06-07T00:05:53.611Z,0.00
2018-06-07T00:06:53.600Z,0.00
2018-06-07T00:07:53.606Z,0.00
2018-06-07T00:08:54.106Z,0.00
2018-06-07T00:10:01.107Z,0.00
2018-06-07T00:10:54.105Z,0.00
2018-06-07T00:11:55.067Z,0.00
2018-06-07T00:12:54.604Z,0.00
2018-06-07T00:15:48.282Z,0.00
2018-06-07T00:16:26.643Z,0.00
2018-06-07T00:17:27.288Z,0.00
2018-06-07T00:18:27.789Z,0.00
2018-06-07T00:19:48.789Z,0.00
2018-06-07T00:20:27.795Z,0.00
2018-06-07T00:21:33.789Z,0.00
2018-06-07T00:23:59.538Z,0.00
2018-06-07T00:24:59.545Z,0.00
2018-06-07T00:25:59.547Z,0.00
2018-06-07T00:26:59.167Z,0.00
2018-06-07T00:28:00.046Z,0.00
2018-06-07T00:29:00.046Z,0.00
2018-06-07T00:30:00.060Z,0.00
2018-06-07T00:32:53.303Z,0.00
2018-06-07T00:33:33.308Z,0.00
2018-06-07T00:34:53.310Z,0.00
2018-06-07T00:35:32.814Z,0.00
2018-06-07T00:36:34.810Z,0.00
2018-06-07T00:37:32.809Z,0.00
2018-06-07T00:38:32.810Z,0.00
2018-06-07T00:39:33.320Z,0.00
2018-06-07T00:40:33.311Z,0.00
2018-06-07T00:41:33.311Z,0.00
2018-06-07T00:42:33.310Z,0.00
2018-06-07T00:43:33.810Z,0.00
2018-06-07T00:44:33.043Z,0.00
2018-06-07T00:45:33.808Z,0.00
2018-06-07T00:46:33.812Z,0.00
2018-06-07T00:47:55.311Z,0.00
2018-06-07T00:48:34.310Z,0.00
2018-06-07T00:49:34.308Z,0.00
2018-06-07T00:50:33.788Z,0.00
2018-06-07T00:51:33.891Z,0.00
2018-06-07T00:52:34.003Z,0.00
2018-06-07T00:53:55.811Z,0.00
2018-06-07T00:56:33.823Z,0.00
2018-06-07T00:57:06.891Z,0.00
2018-06-07T00:58:12.828Z,0.00
2018-06-07T00:59:07.825Z,0.00
2018-06-07T01:01:07.327Z,0.00
2018-06-07T01:02:07.364Z,0.00
2018-06-07T01:03:07.327Z,0.00
2018-06-07T01:04:08.826Z,0.00
2018-06-07T01:05:07.834Z,0.00
2018-06-07T01:06:07.832Z,0.00
2018-06-07T01:07:07.827Z,0.00
2018-06-07T01:08:09.326Z,0.00
2018-06-07T01:09:08.330Z,0.00
2018-06-07T01:10:08.331Z,0.00
2018-06-07T01:11:08.328Z,0.00
2018-06-07T01:12:08.832Z,0.00
2018-06-07T01:13:08.828Z,0.00
2018-06-07T01:14:08.829Z,0.00
2018-06-07T01:15:08.830Z,0.00
2018-06-07T01:16:31.325Z,0.00
2018-06-07T01:17:09.329Z,0.00
2018-06-07T01:18:08.678Z,0.00
2018-06-07T01:19:09.336Z,0.00
2018-06-07T01:20:09.829Z,0.00
2018-06-07T01:21:09.828Z,0.00
2018-06-07T01:22:09.827Z,0.00
2018-06-07T01:23:09.828Z,0.00
2018-06-07T01:24:11.326Z,0.00
2018-06-07T01:25:10.339Z,0.00
2018-06-07T01:26:10.326Z,0.00
2018-06-07T01:27:09.804Z,0.00
2018-06-07T01:28:09.908Z,0.00
2018-06-07T01:29:31.831Z,0.00
2018-06-07T01:30:10.831Z,0.00
2018-06-07T01:31:12.303Z,0.00
2018-06-07T01:32:10.828Z,0.00
2018-06-07T01:33:10.429Z,0.00
2018-06-07T01:34:11.328Z,0.00
2018-06-07T01:35:33.326Z,0.00
2018-06-07T01:36:11.333Z,0.00
2018-06-07T01:37:11.835Z,0.00
2018-06-07T01:38:11.827Z,0.00
2018-06-07T01:39:11.181Z,0.00
2018-06-07T01:40:11.838Z,0.00
2018-06-07T01:41:33.335Z,0.00
2018-06-07T01:42:33.328Z,0.00
2018-06-07T01:43:12.328Z,0.00
2018-06-07T01:44:12.328Z,0.00
2018-06-07T01:45:12.835Z,0.00
2018-06-07T01:46:12.829Z,0.00
2018-06-07T01:47:12.828Z,0.00
2018-06-07T01:48:13.826Z,0.00
2018-06-07T01:49:12.427Z,0.00
2018-06-07T01:50:13.328Z,0.00
2018-06-07T01:51:14.326Z,0.00
2018-06-07T01:52:13.328Z,0.00
2018-06-07T01:53:12.935Z,0.00
2018-06-07T01:54:13.829Z,0.00
2018-06-07T01:55:13.825Z,0.00
2018-06-07T01:56:13.835Z,0.00
2018-06-07T01:57:14.328Z,0.00
2018-06-07T01:58:13.554Z,0.00
2018-06-07T01:59:14.330Z,0.00
2018-06-07T02:00:14.337Z,0.00
2018-06-07T02:01:16.868Z,0.00
2018-06-07T02:02:14.829Z,0.00
2018-06-07T02:03:14.189Z,0.00
2018-06-07T02:04:14.828Z,0.00
2018-06-07T02:05:21.338Z,0.00
2018-06-07T02:06:15.328Z,0.00
2018-06-07T02:07:15.358Z,0.00
2018-06-07T02:08:15.828Z,0.00
2018-06-07T02:10:47.087Z,0.00
2018-06-07T02:11:47.092Z,0.00
2018-06-07T02:12:47.097Z,0.00
2018-06-07T02:13:47.595Z,0.00
2018-06-07T02:14:47.593Z,0.00
2018-06-07T02:15:47.592Z,0.00
2018-06-07T02:16:48.601Z,0.00
2018-06-07T02:18:10.100Z,0.00
2018-06-07T02:18:48.098Z,0.00
2018-06-07T02:19:48.096Z,0.00
2018-06-07T02:21:09.096Z,0.00
2018-06-07T02:22:13.030Z,0.00
2018-06-07T02:22:48.597Z,0.00
2018-06-07T02:23:48.599Z,0.00
2018-06-07T02:24:48.073Z,0.00
2018-06-07T02:27:20.330Z,0.00
2018-06-07T02:28:21.797Z,0.00
2018-06-07T02:29:20.336Z,0.00
2018-06-07T02:30:41.839Z,0.00
2018-06-07T02:31:20.844Z,0.00
2018-06-07T02:32:20.836Z,0.00
2018-06-07T02:33:20.843Z,0.00
2018-06-07T02:34:21.340Z,0.00
2018-06-07T02:35:21.348Z,0.00
2018-06-07T02:36:42.344Z,0.00
2018-06-07T02:37:21.340Z,0.00
2018-06-07T02:38:21.837Z,0.00
2018-06-07T02:39:21.066Z,0.00
2018-06-07T02:40:21.839Z,0.00
2018-06-07T02:41:21.834Z,0.00
2018-06-07T02:42:22.337Z,0.00
2018-06-07T02:43:22.333Z,0.00
2018-06-07T02:44:43.339Z,0.00
2018-06-07T02:45:22.338Z,0.00
2018-06-07T02:46:22.837Z,0.00
2018-06-07T02:47:22.836Z,0.00
2018-06-07T02:48:22.836Z,0.00
2018-06-07T02:49:22.837Z,0.00
2018-06-07T02:50:23.337Z,0.00
2018-06-07T02:51:23.346Z,0.00
2018-06-07T02:52:23.340Z,0.00
2018-06-07T02:53:22.809Z,0.00
2018-06-07T02:54:23.837Z,0.00
2018-06-07T02:55:23.842Z,0.00
2018-06-07T02:56:23.836Z,0.00
2018-06-07T02:57:24.834Z,0.00
2018-06-07T02:58:24.336Z,0.00
2018-06-07T02:59:24.335Z,0.00
2018-06-07T03:00:24.374Z,0.00
2018-06-07T03:01:24.364Z,0.00
2018-06-07T03:02:24.837Z,0.00
2018-06-07T03:03:24.061Z,0.00
2018-06-07T03:04:24.836Z,0.00
2018-06-07T03:05:24.837Z,0.00
2018-06-07T03:06:25.336Z,0.00
2018-06-07T03:07:46.338Z,0.00
2018-06-07T03:08:25.338Z,0.00
2018-06-07T03:09:25.340Z,0.00
2018-06-07T03:10:25.843Z,0.00
2018-06-07T03:11:25.849Z,0.00
2018-06-07T03:12:25.847Z,0.00
2018-06-07T03:13:25.834Z,5.63
2018-06-07T03:14:26.333Z,5.63
2018-06-07T03:15:26.341Z,5.63
2018-06-07T03:16:26.336Z,5.63
2018-06-07T03:17:26.837Z,5.63
2018-06-07T03:18:29.768Z,5.63
2018-06-07T03:19:47.036Z,5.63
2018-06-07T03:20:26.847Z,5.63
2018-06-07T03:21:26.837Z,5.63
2018-06-07T03:22:26.839Z,5.63
2018-06-07T03:23:27.336Z,5.63
2018-06-07T03:25:58.707Z,5.63
2018-06-07T03:26:58.715Z,5.63
2018-06-07T03:27:58.712Z,11.25
2018-06-07T03:28:59.210Z,11.25
2018-06-07T03:29:59.211Z,11.25
2018-06-07T03:30:59.218Z,11.25
2018-06-07T03:31:58.691Z,11.25
2018-06-07T03:33:01.711Z,11.25
2018-06-07T03:34:20.230Z,11.25
2018-06-07T03:34:59.711Z,11.25
2018-06-07T03:36:20.711Z,11.25
2018-06-07T03:37:00.217Z,11.25
2018-06-07T03:38:01.209Z,11.25
2018-06-07T03:38:59.559Z,16.88
2018-06-07T03:40:00.211Z,16.88
2018-06-07T03:41:00.712Z,16.88
2018-06-07T03:43:32.082Z,16.88
2018-06-07T03:44:32.089Z,16.88
2018-06-07T03:45:32.088Z,16.88
2018-06-07T03:46:32.589Z,22.50
2018-06-07T03:47:32.589Z,22.50
2018-06-07T03:48:32.589Z,22.50
2018-06-07T03:49:32.590Z,22.50
2018-06-07T03:50:34.062Z,22.50
2018-06-07T03:51:33.095Z,22.50
2018-06-07T03:52:33.093Z,28.13
2018-06-07T03:53:32.561Z,28.13
2018-06-07T03:54:33.589Z,28.13
2018-06-07T03:55:33.593Z,33.75
2018-06-07T03:56:33.596Z,33.75
2018-06-07T03:57:33.589Z,33.75
2018-06-07T03:58:34.089Z,33.75
2018-06-07T03:59:34.089Z,33.75
2018-06-07T04:00:55.090Z,39.38
2018-06-07T04:01:33.570Z,39.38
2018-06-07T04:02:33.668Z,39.38
2018-06-07T04:03:34.589Z,39.38
2018-06-07T04:04:33.814Z,39.38
2018-06-07T04:05:34.589Z,39.38
2018-06-07T04:06:34.064Z,45.00
2018-06-07T04:07:35.089Z,45.00
2018-06-07T04:08:35.089Z,45.00
2018-06-07T04:09:35.088Z,45.00
2018-06-07T04:10:35.089Z,45.00
2018-06-07T04:11:35.588Z,45.00
2018-06-07T04:12:35.603Z,45.00
2018-06-07T04:13:35.592Z,45.00
2018-06-07T04:14:35.589Z,45.00
2018-06-07T04:15:36.090Z,45.00
2018-06-07T04:16:35.313Z,45.00
2018-06-07T04:17:42.089Z,45.00
2018-06-07T04:18:36.089Z,45.00
2018-06-07T04:21:08.337Z,50.63
2018-06-07T04:22:08.345Z,50.63
2018-06-07T04:23:29.341Z,50.63
2018-06-07T04:26:00.350Z,50.63
2018-06-07T04:26:40.107Z,50.63
2018-06-07T04:27:40.104Z,50.63
2018-06-07T04:30:11.847Z,56.25
2018-06-07T04:31:11.857Z,56.25
2018-06-07T04:32:18.357Z,56.25
2018-06-07T04:33:13.355Z,56.25
2018-06-07T04:34:12.364Z,56.25
2018-06-07T04:35:13.831Z,56.25
2018-06-07T04:36:12.361Z,56.25
2018-06-07T04:37:12.857Z,56.25
2018-06-07T04:38:12.859Z,61.88
2018-06-07T04:39:12.857Z,61.88
2018-06-07T04:40:12.860Z,61.88
2018-06-07T04:41:13.361Z,61.88
2018-06-07T04:42:13.355Z,61.88
2018-06-07T04:43:12.747Z,61.88
2018-06-07T04:44:13.366Z,67.50
2018-06-07T04:45:13.857Z,67.50
2018-06-07T04:46:18.291Z,67.50
2018-06-07T04:47:13.857Z,67.50
2018-06-07T04:48:14.295Z,67.50
2018-06-07T04:49:14.359Z,67.50
2018-06-07T04:50:14.361Z,67.50
2018-06-07T04:51:14.359Z,67.50
2018-06-07T04:52:14.357Z,67.50
2018-06-07T04:53:14.356Z,73.13
2018-06-07T04:54:14.863Z,73.13
2018-06-07T04:55:14.858Z,73.13
2018-06-07T04:56:14.860Z,73.13
2018-06-07T04:57:14.857Z,73.13
2018-06-07T04:58:38.359Z,73.13
2018-06-07T04:59:15.357Z,73.13
2018-06-07T05:00:15.353Z,73.13
2018-06-07T05:01:17.360Z,73.13
2018-06-07T05:02:15.857Z,78.75
2018-06-07T05:03:15.860Z,78.75
2018-06-07T05:04:15.857Z,78.75
2018-06-07T05:05:15.863Z,78.75
2018-06-07T05:06:37.392Z,78.75
2018-06-07T05:07:36.566Z,78.75
2018-06-07T05:08:15.668Z,78.75
2018-06-07T05:09:16.357Z,78.75
2018-06-07T05:10:16.359Z,78.75
2018-06-07T05:11:37.946Z,84.38
2018-06-07T05:12:16.864Z,84.38
2018-06-07T05:13:16.861Z,84.38
2018-06-07T05:14:37.858Z,84.38
2018-06-07T05:16:48.605Z,84.38
2018-06-07T05:17:48.619Z,84.38
2018-06-07T05:18:48.612Z,84.38
2018-06-07T05:19:49.114Z,84.38
2018-06-07T05:20:49.112Z,84.38
2018-06-07T05:21:49.113Z,84.38
2018-06-07T05:22:49.113Z,84.38
2018-06-07T05:23:49.649Z,84.38
2018-06-07T05:24:49.650Z,84.38
2018-06-07T05:25:49.613Z,84.38
2018-06-07T05:26:49.613Z,84.38
2018-06-07T05:27:50.122Z,84.38
2018-06-07T05:28:50.113Z,84.38
2018-06-07T05:29:50.114Z,84.38
2018-06-07T05:30:49.592Z,84.38
2018-06-07T05:32:11.625Z,90.00
2018-06-07T05:32:50.615Z,90.00
2018-06-07T05:33:50.613Z,90.00
2018-06-07T05:34:50.622Z,90.00
2018-06-07T05:35:50.614Z,90.00
2018-06-07T05:36:51.113Z,90.00
2018-06-07T05:37:51.118Z,90.00
2018-06-07T05:38:50.491Z,90.00
2018-06-07T05:39:51.113Z,90.00
2018-06-07T05:40:50.737Z,90.00
2018-06-07T05:41:51.612Z,95.63
2018-06-07T05:42:50.976Z,95.63
2018-06-07T05:43:51.617Z,95.63
2018-06-07T05:44:52.113Z,95.63
2018-06-07T05:46:13.114Z,95.63
2018-06-07T05:46:52.113Z,95.63
2018-06-07T05:47:52.114Z,95.63
2018-06-07T05:50:23.861Z,101.25
2018-06-07T05:51:23.871Z,101.25
2018-06-07T05:52:23.868Z,101.25
2018-06-07T05:53:24.369Z,101.25
2018-06-07T05:54:24.368Z,101.25
2018-06-07T05:55:24.347Z,101.25
2018-06-07T05:56:24.368Z,101.25
2018-06-07T05:57:25.870Z,101.25
2018-06-07T05:58:24.869Z,101.25
2018-06-07T05:59:24.887Z,101.25
2018-06-07T06:01:56.503Z,106.88
2018-06-07T06:02:55.918Z,106.88
2018-06-07T06:03:56.561Z,106.88
2018-06-07T06:04:58.013Z,106.88
2018-06-07T06:05:57.012Z,106.88
2018-06-07T06:07:12.008Z,106.88
2018-06-07T06:07:58.010Z,106.88
2018-06-07T06:08:57.015Z,106.88
2018-06-07T06:09:58.984Z,112.50
2018-06-07T06:10:59.510Z,112.50
2018-06-07T06:11:57.509Z,112.50
2018-06-07T06:12:57.511Z,112.50
2018-06-07T06:15:29.289Z,112.50
2018-06-07T06:16:29.298Z,112.50
2018-06-07T06:17:29.297Z,112.50
2018-06-07T06:18:29.805Z,112.50
2018-06-07T06:19:29.796Z,112.50
2018-06-07T06:20:29.799Z,118.13
2018-06-07T06:21:29.800Z,118.13
2018-06-07T06:22:51.298Z,118.13
2018-06-07T06:23:30.298Z,118.13
2018-06-07T06:24:31.729Z,118.13
2018-06-07T06:25:30.297Z,118.13
2018-06-07T06:29:55.952Z,118.13
2018-06-07T06:30:33.513Z,118.13
2018-06-07T06:31:33.532Z,118.13
2018-06-07T06:32:34.011Z,123.75
2018-06-07T06:35:28.338Z,123.75
2018-06-07T06:36:06.872Z,123.75
2018-06-07T06:37:04.865Z,123.75
2018-06-07T06:39:36.875Z,123.75
2018-06-07T06:40:37.620Z,123.75
2018-06-07T06:41:37.666Z,129.38
2018-06-07T06:42:59.120Z,129.38
2018-06-07T06:43:44.121Z,129.38
2018-06-07T06:44:59.117Z,129.38
2018-06-07T06:45:38.123Z,135.00
2018-06-07T06:46:44.620Z,140.63
2018-06-07T06:47:59.618Z,135.00
2018-06-07T06:48:44.618Z,135.00
2018-06-07T06:49:44.620Z,135.00
2018-06-07T06:50:41.124Z,135.00
2018-06-07T06:51:39.118Z,135.00
2018-06-07T06:52:39.118Z,140.63
2018-06-07T06:53:39.118Z,140.63
2018-06-07T06:56:11.383Z,140.63
2018-06-07T06:57:11.382Z,140.63
2018-06-07T06:58:11.385Z,140.63
2018-06-07T06:59:31.982Z,140.63
2018-06-07T07:00:11.066Z,140.63
2018-06-07T07:01:32.887Z,146.25
2018-06-07T07:02:11.242Z,146.25
2018-06-07T07:03:11.353Z,146.25
2018-06-07T07:05:44.582Z,151.88
2018-06-07T07:08:36.091Z,151.88
2018-06-07T07:09:15.135Z,151.88
2018-06-07T07:10:15.099Z,157.50
2018-06-07T07:11:14.701Z,157.50
2018-06-07T07:12:20.030Z,157.50
2018-06-07T07:13:36.598Z,157.50
2018-06-07T07:14:15.096Z,157.50
2018-06-07T07:15:16.098Z,157.50
2018-06-07T07:16:16.104Z,163.13
2018-06-07T07:17:16.098Z,163.13
2018-06-07T07:18:16.102Z,168.75
2018-06-07T07:19:15.706Z,168.75
2018-06-07T07:20:16.600Z,168.75
2018-06-07T07:21:16.598Z,168.75
2018-06-07T07:22:16.074Z,168.75
2018-06-07T07:23:19.092Z,168.75
2018-06-07T07:24:17.108Z,174.38
2018-06-07T07:25:16.327Z,174.38
2018-06-07T07:28:09.611Z,180.00
2018-06-07T07:28:50.619Z,180.00
2018-06-07T07:29:48.609Z,180.00
2018-06-07T07:31:09.195Z,185.63
2018-06-07T07:32:10.111Z,185.63
2018-06-07T07:33:10.109Z,185.63
2018-06-07T07:33:49.112Z,191.25
2018-06-07T07:34:48.727Z,196.88
2018-06-07T07:36:10.610Z,185.63
2018-06-07T07:36:49.618Z,180.00
2018-06-07T07:37:50.111Z,191.25
2018-06-07T07:38:53.042Z,191.25
2018-06-07T07:40:11.110Z,208.13
2018-06-07T07:40:54.041Z,208.13
2018-06-07T07:42:11.109Z,208.13
2018-06-07T07:43:10.720Z,213.75
2018-06-07T07:44:11.616Z,213.75
2018-06-07T07:46:21.410Z,219.38
2018-06-07T07:47:22.131Z,219.38
2018-06-07T07:48:22.127Z,219.38
2018-06-07T07:49:43.627Z,219.38
2018-06-07T07:50:45.628Z,219.38
2018-06-07T07:51:28.627Z,219.38
2018-06-07T07:52:22.111Z,225.00
2018-06-07T07:53:23.128Z,225.00
2018-06-07T07:55:54.524Z,230.63
2018-06-07T07:56:56.965Z,230.63
2018-06-07T07:57:54.529Z,236.25
2018-06-07T07:58:55.035Z,236.25
2018-06-07T07:59:55.037Z,236.25
2018-06-07T08:01:16.049Z,236.25
2018-06-07T08:01:55.028Z,236.25
2018-06-07T08:03:16.531Z,236.25
2018-06-07T08:04:08.965Z,236.25
2018-06-07T08:04:56.966Z,236.25
2018-06-07T08:05:55.046Z,241.88
2018-06-07T08:07:17.031Z,241.88
2018-06-07T08:08:10.029Z,241.88
2018-06-07T08:09:17.031Z,241.88
2018-06-07T08:09:56.032Z,241.88
2018-06-07T08:11:17.538Z,247.50
2018-06-07T08:11:55.759Z,247.50
2018-06-07T08:13:16.870Z,241.88
2018-06-07T08:14:17.531Z,247.50
2018-06-07T08:15:18.085Z,247.50
2018-06-07T08:16:03.033Z,247.50
2018-06-07T08:17:03.039Z,247.50
2018-06-07T08:17:57.034Z,247.50
2018-06-07T08:18:59.537Z,247.50
2018-06-07T08:19:57.537Z,253.13
2018-06-07T08:20:57.539Z,247.50
2018-06-07T08:22:04.037Z,247.50
2018-06-07T08:22:58.034Z,253.13
2018-06-07T08:24:20.475Z,253.13
2018-06-07T08:24:58.033Z,253.13
2018-06-07T08:26:21.028Z,253.13
2018-06-07T08:26:58.533Z,253.13
2018-06-07T08:27:57.638Z,253.13
2018-06-07T08:29:00.493Z,258.75
2018-06-07T08:30:00.546Z,258.75
2018-06-07T08:31:03.965Z,258.75
2018-06-07T08:31:59.092Z,258.75
2018-06-07T08:33:13.033Z,258.75
2018-06-07T08:34:21.467Z,258.75
2018-06-07T08:34:59.043Z,258.75
2018-06-07T08:36:20.534Z,258.75
2018-06-07T08:36:59.536Z,258.75
2018-06-07T08:37:59.534Z,258.75
2018-06-07T08:38:59.069Z,258.75
2018-06-07T08:40:00.966Z,258.75
2018-06-07T08:41:00.040Z,258.75
2018-06-07T08:42:21.043Z,264.38
2018-06-07T08:43:00.035Z,264.38
2018-06-07T08:44:00.536Z,264.38
2018-06-07T08:45:00.542Z,270.00
2018-06-07T08:46:00.534Z,270.00
2018-06-07T08:47:21.538Z,275.63
2018-06-07T08:48:00.155Z,270.00
2018-06-07T08:49:15.034Z,270.00
2018-06-07T08:50:00.396Z,270.00
2018-06-07T08:51:01.044Z,270.00
2018-06-07T08:52:07.966Z,270.00
2018-06-07T08:53:03.534Z,275.63
2018-06-07T08:54:22.535Z,275.63
2018-06-07T08:55:01.547Z,281.25
2018-06-07T08:56:04.036Z,281.25
2018-06-07T08:57:30.033Z,275.63
2018-06-07T08:58:04.036Z,275.63
2018-06-07T08:59:02.096Z,275.63
2018-06-07T09:01:33.830Z,275.63
2018-06-07T09:02:33.216Z,281.25
2018-06-07T09:03:54.813Z,281.25
2018-06-07T09:04:55.308Z,281.25
2018-06-07T09:05:34.314Z,281.25
2018-06-07T09:06:33.666Z,281.25
2018-06-07T09:07:34.315Z,286.88
2018-06-07T09:08:34.818Z,281.25
2018-06-07T09:09:34.814Z,286.88
2018-06-07T09:10:34.820Z,286.88
2018-06-07T09:11:35.275Z,292.50
2018-06-07T09:12:36.279Z,292.50
2018-06-07T09:13:35.313Z,292.50
2018-06-07T09:14:35.313Z,292.50
2018-06-07T09:15:35.313Z,298.13
2018-06-07T09:16:34.920Z,298.13
2018-06-07T09:17:49.821Z,298.13
2018-06-07T09:18:35.821Z,298.13
2018-06-07T09:19:35.813Z,303.75
2018-06-07T09:21:03.322Z,303.75
2018-06-07T09:23:30.168Z,309.38
2018-06-07T09:24:07.182Z,309.38
2018-06-07T09:26:39.443Z,309.38
2018-06-07T09:27:39.451Z,309.38
2018-06-07T09:28:39.457Z,309.38
2018-06-07T09:29:53.951Z,309.38
2018-06-07T09:32:11.335Z,315.00
2018-06-07T09:33:10.694Z,315.00
2018-06-07T09:34:11.340Z,315.00
2018-06-07T09:35:11.840Z,315.00
2018-06-07T09:36:32.054Z,326.25
2018-06-07T09:37:11.855Z,320.63
2018-06-07T09:38:11.391Z,320.63
2018-06-07T09:39:11.504Z,320.63
2018-06-07T09:40:12.342Z,320.63
2018-06-07T09:41:12.364Z,326.25
2018-06-07T09:42:33.345Z,326.25
2018-06-07T09:43:12.842Z,326.25
2018-06-07T09:44:13.274Z,331.88
2018-06-07T09:45:12.900Z,331.88
2018-06-07T09:46:28.341Z,331.88
2018-06-07T09:48:46.572Z,337.50
2018-06-07T09:49:44.644Z,343.13
2018-06-07T09:50:47.636Z,343.13
2018-06-07T09:51:59.142Z,343.13
2018-06-07T09:53:06.148Z,348.75
2018-06-07T09:53:46.078Z,343.13
2018-06-07T09:54:45.140Z,348.75
2018-06-07T09:56:12.641Z,348.75
2018-06-07T09:57:06.636Z,354.38
2018-06-07T09:57:45.008Z,354.38
2018-06-07T09:58:45.645Z,360.00
2018-06-07T09:59:46.141Z,360.00
2018-06-07T10:02:21.967Z,360.00
2018-06-07T10:03:16.876Z,360.00
2018-06-07T10:04:41.052Z,365.63
2018-06-07T10:05:17.159Z,365.63
2018-06-07T10:06:18.034Z,371.25
2018-06-07T10:07:18.034Z,371.25
2018-06-07T10:08:45.043Z,371.25
2018-06-07T10:09:17.657Z,376.88
2018-06-07T10:10:20.544Z,376.88
2018-06-07T10:11:18.535Z,388.13
2018-06-07T10:12:18.535Z,376.88
2018-06-07T10:13:18.150Z,382.50
2018-06-07T10:14:19.042Z,382.50
2018-06-07T10:15:19.041Z,382.50
2018-06-07T10:16:19.055Z,382.50
2018-06-07T10:17:19.541Z,382.50
2018-06-07T10:18:19.547Z,388.13
2018-06-07T10:19:21.538Z,388.13
2018-06-07T10:20:19.027Z,388.13
2018-06-07T10:21:34.048Z,388.13
2018-06-07T10:22:20.065Z,393.75
2018-06-07T10:23:20.042Z,393.75
2018-06-07T10:24:20.034Z,393.75
2018-06-07T10:25:20.536Z,399.38
2018-06-07T10:26:20.537Z,399.38
2018-06-07T10:27:22.544Z,399.38
2018-06-07T10:28:20.537Z,399.38
2018-06-07T10:29:35.039Z,399.38
2018-06-07T10:30:21.040Z,405.00
2018-06-07T10:31:21.036Z,405.00
2018-06-07T10:32:21.038Z,410.63
2018-06-07T10:33:21.537Z,416.25
2018-06-07T10:34:21.552Z,416.25
2018-06-07T10:35:21.538Z,416.25
2018-06-07T10:36:21.537Z,421.88
2018-06-07T10:37:22.037Z,421.88
2018-06-07T10:38:22.039Z,421.88
2018-06-07T10:39:24.509Z,427.50
2018-06-07T10:40:22.037Z,427.50
2018-06-07T10:41:24.536Z,433.13
2018-06-07T10:44:14.937Z,438.75
2018-06-07T10:44:53.944Z,438.75
2018-06-07T10:45:53.427Z,438.75
2018-06-07T10:46:54.533Z,438.75
2018-06-07T10:47:54.443Z,444.38
2018-06-07T10:48:53.802Z,444.38
2018-06-07T10:49:54.443Z,450.00
2018-06-07T10:50:54.965Z,455.63
2018-06-07T10:51:54.944Z,455.63
2018-06-07T10:52:54.302Z,461.25
2018-06-07T10:54:15.396Z,466.88
2018-06-07T10:54:55.445Z,461.25
2018-06-07T10:55:55.444Z,472.50
2018-06-07T10:57:18.444Z,483.75
2018-06-07T10:57:55.454Z,483.75
2018-06-07T10:58:56.001Z,483.75
2018-06-07T10:59:55.944Z,489.38
2018-06-07T11:01:16.948Z,483.75
2018-06-07T11:01:55.972Z,483.75
2018-06-07T11:02:56.460Z,483.75
2018-06-07T11:03:56.470Z,478.13
2018-06-07T11:04:56.452Z,483.75
2018-06-07T11:05:56.446Z,483.75
2018-06-07T11:06:58.946Z,483.75
2018-06-07T11:07:56.946Z,483.75
2018-06-07T11:09:17.945Z,483.75
2018-06-07T11:09:56.943Z,489.38
2018-06-07T11:10:56.557Z,489.38
2018-06-07T11:15:00.333Z,478.13
2018-06-07T11:16:27.341Z,478.13
2018-06-07T11:17:00.339Z,478.13
2018-06-07T11:18:03.771Z,478.13
2018-06-07T11:19:00.837Z,483.75
2018-06-07T11:20:00.840Z,483.75
2018-06-07T11:21:00.847Z,483.75
2018-06-07T11:22:28.485Z,489.38
2018-06-07T11:23:01.352Z,495.00
2018-06-07T11:25:34.300Z,511.88
2018-06-07T11:26:33.808Z,506.25
2018-06-07T11:27:32.302Z,500.63
2018-06-07T11:28:33.368Z,495.00
2018-06-07T11:29:39.800Z,495.00
2018-06-07T11:30:33.368Z,500.63
2018-06-07T11:31:35.365Z,506.25
2018-06-07T11:32:33.369Z,528.75
2018-06-07T11:33:54.873Z,534.38
2018-06-07T11:34:54.868Z,556.88
2018-06-07T11:35:33.868Z,579.38
2018-06-07T11:36:33.869Z,590.63
2018-06-07T11:37:55.370Z,601.88
2018-06-07T11:38:34.369Z,590.63
2018-06-07T11:39:34.436Z,579.38
2018-06-07T11:40:33.792Z,579.38
2018-06-07T11:41:33.903Z,579.38
2018-06-07T11:42:34.879Z,585.00
2018-06-07T11:43:34.869Z,585.00
2018-06-07T11:44:34.869Z,573.75
2018-06-07T11:45:55.869Z,590.63
2018-06-07T11:46:56.399Z,590.63
2018-06-07T11:47:34.613Z,601.88
2018-06-07T11:48:56.394Z,618.75
2018-06-07T11:49:35.370Z,613.13
2018-06-07T11:53:33.788Z,511.88
2018-06-07T11:54:34.716Z,624.38
2018-06-07T11:55:34.718Z,641.25
2018-06-07T11:56:55.725Z,663.75
2018-06-07T11:57:34.728Z,703.13
2018-06-07T11:58:35.219Z,708.75
2018-06-07T11:59:35.219Z,697.50
2018-06-07T12:00:35.222Z,669.38
2018-06-07T12:01:35.287Z,646.88
2018-06-07T12:02:35.719Z,624.38
2018-06-07T12:05:28.132Z,568.13
2018-06-07T12:06:06.499Z,556.88
2018-06-07T12:07:07.133Z,466.88
2018-06-07T12:08:13.628Z,450.00
2018-06-07T12:09:07.643Z,433.13
2018-06-07T12:10:07.628Z,388.13
2018-06-07T12:11:21.628Z,331.88
2018-06-07T12:12:08.128Z,298.13
2018-06-07T12:13:10.129Z,286.88
2018-06-07T12:16:02.675Z,326.25
2018-06-07T12:16:39.687Z,331.88
2018-06-07T12:18:00.159Z,337.50
2018-06-07T12:20:12.898Z,382.50
2018-06-07T12:21:11.433Z,405.00
2018-06-07T12:23:43.190Z,399.38
2018-06-07T12:24:43.198Z,376.88
2018-06-07T12:26:04.199Z,365.63
2018-06-07T12:26:43.699Z,354.38
2018-06-07T12:27:43.705Z,348.75
2018-06-07T12:28:43.063Z,337.50
2018-06-07T12:31:29.335Z,320.63
2018-06-07T12:33:49.305Z,281.25
2018-06-07T12:34:47.878Z,270.00
2018-06-07T12:35:46.879Z,264.38
2018-06-07T12:36:50.345Z,253.13
2018-06-07T12:37:47.373Z,253.13
2018-06-07T12:38:47.371Z,253.13
2018-06-07T12:39:47.388Z,253.13
2018-06-07T12:40:47.845Z,253.13
2018-06-07T12:45:46.293Z,174.38
2018-06-07T12:46:33.791Z,168.75
2018-06-07T12:47:25.789Z,163.13
2018-06-07T12:48:19.793Z,168.75
2018-06-07T12:49:40.795Z,174.38
2018-06-07T12:50:47.292Z,185.63
2018-06-07T12:51:41.290Z,191.25
2018-06-07T12:52:45.222Z,191.25
2018-06-07T12:53:20.289Z,196.88
2018-06-07T12:55:52.546Z,202.50
2018-06-07T12:56:54.072Z,202.50
2018-06-07T12:57:52.573Z,202.50
2018-06-07T12:58:58.575Z,208.13
2018-06-07T12:59:52.574Z,213.75
2018-06-07T13:01:13.573Z,213.75
2018-06-07T13:01:52.572Z,208.13
2018-06-07T13:02:59.073Z,202.50
2018-06-07T13:03:53.078Z,202.50
2018-06-07T13:06:24.591Z,213.75
2018-06-07T13:07:24.598Z,225.00
2018-06-07T13:08:45.598Z,230.63
2018-06-07T13:10:56.372Z,247.50
2018-06-07T13:12:17.377Z,253.13
2018-06-07T13:13:17.378Z,253.13
2018-06-07T13:13:56.044Z,253.13
2018-06-07T13:16:27.580Z,253.13
2018-06-07T13:17:27.730Z,253.13
2018-06-07T13:18:28.316Z,253.13
2018-06-07T13:19:49.816Z,247.50
2018-06-07T13:20:28.816Z,247.50
2018-06-07T13:21:28.174Z,241.88
2018-06-07T13:22:29.748Z,241.88
2018-06-07T13:23:50.317Z,236.25
2018-06-07T13:26:03.193Z,230.63
2018-06-07T13:27:00.104Z,230.63
2018-06-07T13:28:00.215Z,225.00
2018-06-07T13:29:22.261Z,225.00
2018-06-07T13:31:53.680Z,219.38
2018-06-07T13:32:32.685Z,219.38
2018-06-07T13:33:32.684Z,213.75
2018-06-07T13:36:04.465Z,208.13
2018-06-07T13:37:03.824Z,202.50
2018-06-07T13:38:03.933Z,202.50
2018-06-07T13:39:04.963Z,202.50
2018-06-07T13:40:06.980Z,202.50
2018-06-07T13:41:04.342Z,196.88
2018-06-07T13:42:04.969Z,196.88
2018-06-07T13:43:05.464Z,196.88
2018-06-07T13:44:05.464Z,196.88
2018-06-07T13:45:04.823Z,191.25
2018-06-07T13:46:05.464Z,191.25
2018-06-07T13:47:19.968Z,191.25
2018-06-07T13:48:05.965Z,191.25
2018-06-07T13:49:05.965Z,191.25
2018-06-07T13:50:05.966Z,191.25
2018-06-07T13:51:27.465Z,191.25
2018-06-07T13:52:07.462Z,191.25
2018-06-07T13:53:06.473Z,191.25
2018-06-07T13:54:06.465Z,191.25
2018-06-07T13:55:27.054Z,191.25
2018-06-07T13:56:27.158Z,191.25
2018-06-07T13:57:07.973Z,191.25
2018-06-07T13:58:06.966Z,191.25
2018-06-07T13:59:07.500Z,191.25
2018-06-07T14:01:38.771Z,191.25
2018-06-07T14:02:59.113Z,191.25
2018-06-07T14:03:38.777Z,191.25
2018-06-07T14:04:39.281Z,191.25
2018-06-07T14:05:39.286Z,191.25
2018-06-07T14:06:39.278Z,196.88
2018-06-07T14:07:39.278Z,196.88
2018-06-07T14:09:02.777Z,196.88